Airfield :
LOGIN :

Register | Disclaimer

   EN    FR    IT 

 










Legend :    VFR   Marginal VFR   IFR   Intensive IFR   Very Intensive IFR
Visi :
Ceiling :
>= 8 km
>= 3000ft
5 to 8 km
1000 to 3000 ft
1500m to 5 km
500 to 1000 ft
800 to 1500m
200 to 500 ft
< 800m
< 200 ft
Symbols :   Thunderstorms  Fog  Heavy snow  Heavy precipitations  Wind > 20 kt
SIGMETs :     Misc.  Thunderstorms  Icing  Turbulence  Mountain Waves  Volcanic Ashes







- Airport Elevation : 741 ft
- IATA code : JKG


ESGJ - Jönköping

CURRENT METAR :
  • 210520Z 26006KT 9999 FEW005 15/13 Q1010

EXPIRED METARs :
  • 210450Z 27007KT 9999 SCT005 14/13 Q1011
  • 210420Z AUTO 25004KT 9999 NCD 14/13 Q1011
  • 210350Z AUTO 27003KT 9999 NCD 13/12 Q1011
  • 210320Z AUTO 27003KT 9999 NCD 12/12 Q1011
  • 210250Z AUTO 25004KT 9999 NCD 12/11 Q1011

TAF TAF ESGJ
Valid from the 21 at 06:00 until the 21 at 13:00 UTC


210530Z 2106/2113 27008KT CAVOK
PROB40 2106/2107 BKN006
No reported NOTAMs for that airfield.



MET'MAP, your aeronautical weather chart ! - Copyright ORBIFLY December 2007 - Disclaimer

ORBIFLY MET'MAP TEAM :

Programming & Development : Alexandra Zaïnal
Concept & Development : Baudouin d'Aumeries
Co-Development & Prog : Marc-Olivier Méhu
Technical & hardware support : Manuel Goepfert

Contact : metmap@orbifly.com




SOURCES & CREDITS :

   NOAA